Time;durP1;ratioP1;P1;durP2;ratioP2;P2;SDS_P1;SDS_P2;PMS_P1;PMS_P2;Temp;Humidity;BMP_temperature;BMP_pressure;BME280_temperature;BME280_humidity;BME280_pressure;Samples;Min_cycle;Max_cycle;Signal;HPM_P1;HPM_P2
2022/11/19 00:02:24;;;;;;;;;;;;;;;-3.34;71.71;99958.64;116217;1291;25628;-70
2022/11/19 00:05:15;;;;;;;;;;;;;;;-3.35;71.78;99962.53;116361;1303;25425;-69
2022/11/19 00:08:06;;;;;;;;;;;;;;;-3.37;72.05;99961.16;116369;1309;22493;-70
2022/11/19 00:10:53;;;;;;;;;;;;;;;-3.36;72.08;99959.63;116380;1290;22452;-69
2022/11/19 00:13:43;;;;;;;;;;;;;;;-3.31;71.92;99960.73;116373;1300;22440;-69
2022/11/19 00:16:33;;;;;;;;;;;;;;;-3.25;71.90;99966.23;116417;1288;22433;-69
2022/11/19 00:19:21;;;;;;;;;;;;;;;-3.15;72.13;99968.73;116352;1305;22451;-69
2022/11/19 00:22:09;;;;;;;;;;;;;;;-3.04;72.22;99968.35;116346;1302;22431;-70
2022/11/19 00:24:56;;;;;;;;;;;;;;;-2.95;71.87;99971.85;116358;1302;22507;-68
2022/11/19 00:27:47;;;;;;;;;;;;;;;-2.95;71.77;99971.88;116283;1291;24254;-70
2022/11/19 00:30:36;;;;;;;;;;;;;;;-2.96;71.56;99972.01;116240;1304;24316;-69
2022/11/19 00:33:24;;;;;;;;;;;;;;;-3.00;71.65;99970.78;116283;1304;22437;-69
2022/11/19 00:36:13;;;;;;;;;;;;;;;-3.03;71.69;99977.40;116304;1295;22429;-69
2022/11/19 00:39:04;;;;;;;;;;;;;;;-3.06;71.60;99978.73;116318;1291;24272;-69
2022/11/19 00:41:55;;;;;;;;;;;;;;;-3.11;71.69;99979.70;116337;1304;22449;-69
2022/11/19 00:44:42;;;;;;;;;;;;;;;-3.15;71.53;99981.20;116360;1289;22432;-69
2022/11/19 00:47:30;;;;;;;;;;;;;;;-3.19;71.74;99982.69;116329;1274;24379;-70
2022/11/19 00:50:23;;;;;;;;;;;;;;;-3.23;71.81;99979.23;116302;1304;22461;-69
2022/11/19 00:53:17;;;;;;;;;;;;;;;-3.26;72.00;99978.67;116329;1303;22447;-69
2022/11/19 00:56:09;;;;;;;;;;;;;;;-3.27;72.00;99976.79;116363;1284;22444;-70
2022/11/19 00:59:00;;;;;;;;;;;;;;;-3.31;71.80;99979.48;116397;1289;22444;-69
2022/11/19 01:01:50;;;;;;;;;;;;;;;-3.34;71.48;99978.77;116397;1278;22453;-69
2022/11/19 01:04:41;;;;;;;;;;;;;;;-3.37;71.50;99984.19;116336;1294;22563;-69
2022/11/19 01:07:28;;;;;;;;;;;;;;;-3.39;71.65;99988.44;116350;1300;22450;-69
2022/11/19 01:10:16;;;;;;;;;;;;;;;-3.40;71.79;99995.05;116368;1286;22444;-67
2022/11/19 01:16:12;;;;;;;;;;;;;;;-3.40;71.77;100002.22;116346;1292;24260;-69
2022/11/19 01:19:02;;;;;;;;;;;;;;;-3.41;71.71;100001.86;116316;1286;22435;-69
2022/11/19 01:21:49;;;;;;;;;;;;;;;-3.43;71.68;100006.45;116329;1303;22570;-68
2022/11/19 01:24:37;;;;;;;;;;;;;;;-3.45;71.72;100003.18;116303;1290;25220;-68
2022/11/19 01:27:27;;;;;;;;;;;;;;;-3.47;71.65;100008.62;116355;1303;22433;-69
2022/11/19 01:30:17;;;;;;;;;;;;;;;-3.48;71.64;100005.89;116330;1291;22684;-69
2022/11/19 01:33:08;;;;;;;;;;;;;;;-3.49;71.81;100011.67;116291;1284;22433;-69
2022/11/19 01:35:59;;;;;;;;;;;;;;;-3.44;71.77;100007.98;116292;1303;22510;-68
2022/11/19 01:38:49;;;;;;;;;;;;;;;-3.38;71.80;100007.54;116345;1291;24484;-68
2022/11/19 01:41:37;;;;;;;;;;;;;;;-3.31;71.71;100012.06;116344;1301;22781;-67
2022/11/19 01:44:59;;;;;;;;;;;;;;;-3.24;71.56;100009.74;116361;1303;22441;-69
2022/11/19 01:47:47;;;;;;;;;;;;;;;-3.20;71.63;100003.30;116358;1286;23620;-70
2022/11/19 01:50:39;;;;;;;;;;;;;;;-3.21;71.46;100000.58;116376;1277;22449;-67
2022/11/19 01:53:29;;;;;;;;;;;;;;;-3.19;71.62;100000.59;116316;1290;25180;-69
2022/11/19 01:56:21;;;;;;;;;;;;;;;-3.18;71.55;100000.45;116334;1288;22431;-69
2022/11/19 01:59:09;;;;;;;;;;;;;;;-3.20;71.53;100003.16;116354;1291;25374;-69
2022/11/19 02:01:58;;;;;;;;;;;;;;;-3.21;71.62;100002.45;116324;1278;25266;-69
2022/11/19 02:04:50;;;;;;;;;;;;;;;-3.25;71.49;100003.42;116333;1294;24295;-69
2022/11/19 02:07:37;;;;;;;;;;;;;;;-3.28;71.50;100005.61;116333;1303;22442;-69
2022/11/19 02:10:33;;;;;;;;;;;;;;;-3.29;71.51;100008.34;116351;1290;25859;-70
2022/11/19 02:13:25;;;;;;;;;;;;;;;-3.32;71.42;100010.16;116316;1291;22491;-70
2022/11/19 02:16:16;;;;;;;;;;;;;;;-3.33;71.56;100011.70;116356;1297;22464;-68
2022/11/19 02:19:06;;;;;;;;;;;;;;;-3.35;71.46;100011.66;116354;1303;22506;-69
2022/11/19 02:21:56;;;;;;;;;;;;;;;-3.38;71.30;100013.67;116309;1284;25348;-69
2022/11/19 02:24:50;;;;;;;;;;;;;;;-3.41;71.45;100012.10;116330;1303;22537;-69
2022/11/19 02:28:01;;;;;;;;;;;;;;;-3.41;71.55;100010.73;116324;1294;22474;-69
2022/11/19 02:30:49;;;;;;;;;;;;;;;-3.42;71.50;100013.62;116381;1303;22475;-70
2022/11/19 02:33:40;;;;;;;;;;;;;;;-3.43;71.74;100007.48;116382;1303;22454;-70
2022/11/19 02:36:32;;;;;;;;;;;;;;;-3.42;71.88;100013.79;116438;1294;22466;-69
2022/11/19 02:39:20;;;;;;;;;;;;;;;-3.43;71.93;100011.56;116421;1297;22461;-69
2022/11/19 02:42:15;;;;;;;;;;;;;;;-3.47;71.84;100008.11;116370;1303;22452;-69
2022/11/19 02:45:08;;;;;;;;;;;;;;;-3.50;71.91;100009.27;116385;1303;22449;-70
2022/11/19 02:47:59;;;;;;;;;;;;;;;-3.51;71.94;100013.67;116330;1285;22448;-70
2022/11/19 02:50:48;;;;;;;;;;;;;;;-3.52;71.92;100008.21;116355;1283;22453;-70
2022/11/19 02:53:38;;;;;;;;;;;;;;;-3.53;72.21;100009.56;116402;1281;22544;-69
2022/11/19 02:56:50;;;;;;;;;;;;;;;-3.54;72.54;100005.97;116331;1291;22450;-69
2022/11/19 03:05:56;;;;;;;;;;;;;;;-3.46;73.05;100016.82;116319;1296;22932;-69
2022/11/19 03:08:43;;;;;;;;;;;;;;;-3.37;73.28;100018.63;116305;1295;22622;-69
2022/11/19 03:11:33;;;;;;;;;;;;;;;-3.30;73.21;100024.35;116322;1279;24291;-69
2022/11/19 03:17:30;;;;;;;;;;;;;;;-3.17;73.42;100030.30;116322;1287;22458;-69
2022/11/19 03:20:22;;;;;;;;;;;;;;;-3.15;73.51;100032.73;116358;1303;22452;-68
2022/11/19 03:23:14;;;;;;;;;;;;;;;-3.14;73.35;100033.24;116399;1296;22433;-67
2022/11/19 03:26:10;;;;;;;;;;;;;;;-3.17;73.43;100032.86;116314;1302;22440;-70
2022/11/19 03:29:02;;;;;;;;;;;;;;;-3.19;73.35;100037.12;116344;1283;22463;-70
2022/11/19 03:31:50;;;;;;;;;;;;;;;-3.22;73.35;100038.44;116357;1296;24281;-70
2022/11/19 03:34:37;;;;;;;;;;;;;;;-3.27;73.50;100040.41;116346;1278;22445;-70
2022/11/19 03:37:25;;;;;;;;;;;;;;;-3.29;73.72;100042.43;116348;1284;22424;-70
2022/11/19 03:40:15;;;;;;;;;;;;;;;-3.32;73.72;100043.77;116331;1278;22435;-70
2022/11/19 03:43:05;;;;;;;;;;;;;;;-3.35;73.92;100044.06;116336;1303;22484;-69
2022/11/19 03:45:58;;;;;;;;;;;;;;;-3.40;73.81;100045.55;116321;1282;24257;-70
2022/11/19 03:48:46;;;;;;;;;;;;;;;-3.44;73.94;100049.59;116348;1303;24264;-70
2022/11/19 03:51:35;;;;;;;;;;;;;;;-3.46;74.14;100052.78;116312;1285;22548;-70
2022/11/19 03:54:24;;;;;;;;;;;;;;;-3.49;74.34;100056.52;116358;1287;22444;-71
2022/11/19 03:57:19;;;;;;;;;;;;;;;-3.51;74.38;100060.22;116342;1290;22439;-70
2022/11/19 04:00:11;;;;;;;;;;;;;;;-3.51;74.58;100060.39;116332;1284;22468;-69
2022/11/19 04:03:02;;;;;;;;;;;;;;;-3.52;74.83;100064.81;116406;1285;22455;-69
2022/11/19 04:05:52;;;;;;;;;;;;;;;-3.54;74.86;100069.92;116407;1285;24292;-68
2022/11/19 04:08:43;;;;;;;;;;;;;;;-3.55;75.13;100069.55;116332;1285;22590;-68
2022/11/19 04:11:33;;;;;;;;;;;;;;;-3.58;74.94;100072.06;116369;1270;22447;-70
2022/11/19 04:14:23;;;;;;;;;;;;;;;-3.60;75.09;100078.86;116344;1303;22466;-69
2022/11/19 04:17:12;;;;;;;;;;;;;;;-3.60;75.29;100071.34;116354;1294;22493;-67
2022/11/19 04:19:59;;;;;;;;;;;;;;;-3.61;75.15;100071.84;116344;1284;22559;-70
2022/11/19 04:22:49;;;;;;;;;;;;;;;-3.64;75.43;100074.89;116318;1303;22464;-71
2022/11/19 04:25:40;;;;;;;;;;;;;;;-3.64;75.57;100073.52;116312;1284;22455;-69
2022/11/19 04:28:33;;;;;;;;;;;;;;;-3.66;75.70;100077.23;116295;1303;25704;-68
2022/11/19 04:31:23;;;;;;;;;;;;;;;-3.66;75.83;100082.00;116331;1303;25350;-69
2022/11/19 04:34:13;;;;;;;;;;;;;;;-3.68;75.98;100085.05;116326;1292;22444;-69
2022/11/19 04:37:05;;;;;;;;;;;;;;;-3.70;76.01;100086.38;116315;1303;22472;-69
2022/11/19 04:39:53;;;;;;;;;;;;;;;-3.73;76.20;100083.45;116295;1291;22507;-69
2022/11/19 04:42:41;;;;;;;;;;;;;;;-3.72;76.33;100086.36;116378;1282;22440;-69
2022/11/19 04:45:28;;;;;;;;;;;;;;;-3.70;76.51;100086.89;116398;1303;22467;-69
2022/11/19 04:48:15;;;;;;;;;;;;;;;-3.65;76.46;100088.49;116387;1285;22541;-68
2022/11/19 04:51:05;;;;;;;;;;;;;;;-3.57;76.78;100089.29;116359;1303;22512;-70
2022/11/19 04:53:55;;;;;;;;;;;;;;;-3.49;76.77;100088.21;116385;1303;25363;-70
2022/11/19 04:56:46;;;;;;;;;;;;;;;-3.44;76.77;100091.88;116374;1294;22462;-71
2022/11/19 04:59:33;;;;;;;;;;;;;;;-3.43;76.71;100090.02;116369;1284;22488;-71
2022/11/19 05:02:23;;;;;;;;;;;;;;;-3.43;76.72;100093.09;116144;1303;248621;-70
2022/11/19 05:05:11;;;;;;;;;;;;;;;-3.45;76.66;100094.25;116290;1284;24318;-68
2022/11/19 05:07:58;;;;;;;;;;;;;;;-3.49;76.52;100096.75;116324;1294;22478;-68
2022/11/19 05:10:50;;;;;;;;;;;;;;;-3.53;76.74;100097.70;116247;1292;22832;-69
2022/11/19 05:13:38;;;;;;;;;;;;;;;-3.58;76.70;100094.74;116260;1304;25905;-68
2022/11/19 05:16:25;;;;;;;;;;;;;;;-3.63;76.93;100094.16;116314;1285;22485;-69
2022/11/19 05:19:16;;;;;;;;;;;;;;;-3.69;77.04;100091.51;116329;1281;22449;-69
2022/11/19 05:22:03;;;;;;;;;;;;;;;-3.75;76.99;100089.04;116290;1304;22529;-71
2022/11/19 05:24:51;;;;;;;;;;;;;;;-3.80;77.04;100092.88;116320;1304;25250;-69
2022/11/19 05:27:39;;;;;;;;;;;;;;;-3.83;77.28;100092.66;116306;1304;24340;-70
2022/11/19 05:30:27;;;;;;;;;;;;;;;-3.87;77.54;100095.67;116367;1284;22442;-70
2022/11/19 05:33:17;;;;;;;;;;;;;;;-3.89;77.63;100095.63;116312;1290;22481;-70
2022/11/19 05:36:08;;;;;;;;;;;;;;;-3.92;77.63;100098.48;116347;1304;24232;-70
2022/11/19 05:38:56;;;;;;;;;;;;;;;-3.94;77.86;100101.67;116290;1284;24275;-69
2022/11/19 05:41:44;;;;;;;;;;;;;;;-3.97;77.87;100101.81;116299;1287;22433;-69
2022/11/19 05:44:31;;;;;;;;;;;;;;;-3.98;78.03;100107.08;116331;1298;22458;-69
2022/11/19 05:47:19;;;;;;;;;;;;;;;-4.00;78.03;100113.01;116333;1284;24274;-69
2022/11/19 05:50:09;;;;;;;;;;;;;;;-4.02;78.07;100116.38;116298;1298;22509;-69
2022/11/19 05:52:56;;;;;;;;;;;;;;;-4.04;78.19;100116.85;116199;1287;22440;-69
2022/11/19 05:55:50;;;;;;;;;;;;;;;-4.07;78.29;100124.48;116329;1278;22471;-69
2022/11/19 05:58:38;;;;;;;;;;;;;;;-4.09;78.28;100122.23;116242;1283;22447;-69
2022/11/19 06:01:28;;;;;;;;;;;;;;;-4.10;78.62;100127.48;116322;1291;25388;-69
2022/11/19 06:04:18;;;;;;;;;;;;;;;-4.12;78.93;100129.84;116356;1287;22512;-69
2022/11/19 06:07:08;;;;;;;;;;;;;;;-4.14;78.81;100133.55;116366;1303;22424;-71
2022/11/19 06:09:55;;;;;;;;;;;;;;;-4.19;78.82;100138.43;116335;1303;22447;-69
2022/11/19 06:12:45;;;;;;;;;;;;;;;-4.20;79.01;100141.80;116362;1298;25242;-69
2022/11/19 06:15:32;;;;;;;;;;;;;;;-4.21;79.19;100151.83;116346;1278;24261;-70
2022/11/19 06:18:19;;;;;;;;;;;;;;;-4.23;79.17;100147.20;116349;1285;22443;-70
2022/11/19 06:21:09;;;;;;;;;;;;;;;-4.24;79.32;100154.48;116353;1303;22440;-69
2022/11/19 06:24:02;;;;;;;;;;;;;;;-4.24;79.32;100157.55;116358;1284;22441;-69
2022/11/19 06:26:51;;;;;;;;;;;;;;;-4.24;79.46;100164.02;116349;1284;22453;-69
2022/11/19 06:29:39;;;;;;;;;;;;;;;-4.24;79.54;100172.02;116301;1303;22451;-70
2022/11/19 06:32:28;;;;;;;;;;;;;;;-4.22;79.77;100175.83;116326;1302;22473;-70
2022/11/19 06:35:18;;;;;;;;;;;;;;;-4.16;79.76;100179.50;116326;1289;24274;-70
2022/11/19 06:38:05;;;;;;;;;;;;;;;-4.07;79.83;100182.39;116289;1297;22452;-71
2022/11/19 06:40:52;;;;;;;;;;;;;;;-3.94;79.85;100187.40;116349;1303;22751;-69
2022/11/19 06:43:43;;;;;;;;;;;;;;;-3.80;79.98;100189.84;116275;1303;25851;-70
2022/11/19 06:46:32;;;;;;;;;;;;;;;-3.71;79.78;100193.24;116346;1302;22467;-69
2022/11/19 06:49:24;;;;;;;;;;;;;;;-3.61;79.91;100196.81;116333;1301;22722;-69
2022/11/19 06:52:19;;;;;;;;;;;;;;;-3.56;79.68;100201.84;116307;1303;22460;-70
2022/11/19 06:55:10;;;;;;;;;;;;;;;-3.55;79.55;100207.14;116330;1286;22433;-69
2022/11/19 06:58:00;;;;;;;;;;;;;;;-3.54;79.54;100210.59;116356;1284;22444;-70
2022/11/19 07:00:53;;;;;;;;;;;;;;;-3.52;79.65;100209.75;116325;1303;25238;-69
2022/11/19 07:03:43;;;;;;;;;;;;;;;-3.47;79.90;100211.70;116346;1302;22528;-69
2022/11/19 07:06:33;;;;;;;;;;;;;;;-3.42;79.85;100212.30;116368;1284;22460;-69
2022/11/19 07:09:23;;;;;;;;;;;;;;;-3.41;79.72;100212.98;116317;1287;22442;-69
2022/11/19 07:12:12;;;;;;;;;;;;;;;-3.41;79.68;100217.77;116196;1284;22429;-69
2022/11/19 07:15:02;;;;;;;;;;;;;;;-3.43;79.45;100219.45;116303;1284;22481;-69
2022/11/19 07:17:53;;;;;;;;;;;;;;;-3.45;79.63;100218.92;116356;1290;22425;-69
2022/11/19 07:20:44;;;;;;;;;;;;;;;-3.46;79.66;100219.05;116293;1303;22560;-69
2022/11/19 07:23:32;;;;;;;;;;;;;;;-3.45;79.71;100222.98;116350;1284;22463;-69
2022/11/19 07:26:20;;;;;;;;;;;;;;;-3.44;79.84;100219.27;116358;1286;22437;-71
2022/11/19 07:29:10;;;;;;;;;;;;;;;-3.42;79.89;100224.06;116331;1303;25580;-69
2022/11/19 07:32:05;;;;;;;;;;;;;;;-3.39;79.96;100227.86;116326;1297;22450;-70
2022/11/19 07:34:57;;;;;;;;;;;;;;;-3.37;80.16;100228.75;116345;1292;23023;-69
2022/11/19 07:37:50;;;;;;;;;;;;;;;-3.35;79.94;100231.84;116355;1288;22464;-69
2022/11/19 07:40:54;;;;;;;;;;;;;;;-3.32;80.09;100230.52;116358;1287;22485;-69
2022/11/19 07:43:43;;;;;;;;;;;;;;;-3.28;80.04;100229.06;116336;1284;22465;-68
2022/11/19 07:46:33;;;;;;;;;;;;;;;-3.24;80.28;100227.42;116348;1282;25344;-69
2022/11/19 07:49:23;;;;;;;;;;;;;;;-3.21;80.02;100225.08;116356;1276;22473;-70
2022/11/19 07:52:13;;;;;;;;;;;;;;;-3.18;80.10;100229.39;116356;1300;22426;-69
2022/11/19 07:55:00;;;;;;;;;;;;;;;-3.11;80.53;100230.85;116399;1292;25356;-70
2022/11/19 07:57:47;;;;;;;;;;;;;;;-2.98;80.30;100230.70;116338;1303;22457;-70
2022/11/19 08:00:34;;;;;;;;;;;;;;;-2.84;80.57;100228.35;116330;1303;22482;-70
2022/11/19 08:03:24;;;;;;;;;;;;;;;-2.66;80.51;100225.68;116363;1302;22450;-70
2022/11/19 08:06:12;;;;;;;;;;;;;;;-2.45;80.24;100228.53;116312;1303;25441;-70
2022/11/19 08:09:00;;;;;;;;;;;;;;;-2.26;80.04;100228.39;116332;1285;22436;-70
2022/11/19 08:11:47;;;;;;;;;;;;;;;-2.15;79.50;100230.41;116302;1303;22446;-70
2022/11/19 08:14:35;;;;;;;;;;;;;;;-2.08;79.49;100230.82;116302;1295;25356;-69
2022/11/19 08:20:32;;;;;;;;;;;;;;;-1.98;79.04;100236.40;116398;1290;22463;-71
2022/11/19 08:23:22;;;;;;;;;;;;;;;-1.98;78.64;100236.40;116278;1287;22434;-69
2022/11/19 08:26:19;;;;;;;;;;;;;;;-1.97;78.33;100240.70;116357;1278;25233;-68
2022/11/19 08:29:10;;;;;;;;;;;;;;;-1.98;77.72;100238.10;116345;1303;22665;-67
2022/11/19 08:31:58;;;;;;;;;;;;;;;-1.94;78.29;100241.23;116365;1303;25895;-68
2022/11/19 08:34:46;;;;;;;;;;;;;;;-1.87;78.30;100242.67;116307;1287;22439;-70
2022/11/19 08:37:34;;;;;;;;;;;;;;;-1.82;78.09;100246.15;116344;1284;24258;-70
2022/11/19 08:40:21;;;;;;;;;;;;;;;-1.76;77.81;100243.98;116374;1284;22428;-69
2022/11/19 08:43:09;;;;;;;;;;;;;;;-1.68;77.97;100249.86;116357;1295;25362;-67
2022/11/19 08:45:58;;;;;;;;;;;;;;;-1.59;77.73;100246.55;116355;1303;22467;-69
2022/11/19 08:48:50;;;;;;;;;;;;;;;-1.54;77.38;100247.27;116337;1294;22448;-69
2022/11/19 08:51:43;;;;;;;;;;;;;;;-1.50;77.31;100253.63;116392;1303;22907;-68
2022/11/19 08:54:31;;;;;;;;;;;;;;;-1.54;76.90;100252.21;116337;1295;22462;-69
2022/11/19 08:57:22;;;;;;;;;;;;;;;-1.52;77.01;100256.52;116334;1298;23951;-70
2022/11/19 09:00:11;;;;;;;;;;;;;;;-1.52;76.96;100255.83;116410;1303;22454;-68
2022/11/19 09:03:01;;;;;;;;;;;;;;;-1.52;77.22;100250.36;116426;1277;22461;-66
2022/11/19 09:05:50;;;;;;;;;;;;;;;-1.48;77.13;100253.81;116380;1287;22443;-68
2022/11/19 09:08:41;;;;;;;;;;;;;;;-1.42;76.66;100254.90;116370;1302;22450;-68
2022/11/19 09:11:28;;;;;;;;;;;;;;;-1.43;76.52;100254.54;116346;1284;22443;-68
2022/11/19 09:14:16;;;;;;;;;;;;;;;-1.40;76.51;100255.08;116374;1303;22451;-69
2022/11/19 09:17:06;;;;;;;;;;;;;;;-1.37;76.16;100259.55;116348;1303;22465;-68
2022/11/19 09:19:56;;;;;;;;;;;;;;;-1.34;75.65;100262.15;116357;1300;22535;-69
2022/11/19 09:22:46;;;;;;;;;;;;;;;-1.26;75.73;100265.31;116336;1284;25246;-70
2022/11/19 09:25:40;;;;;;;;;;;;;;;-1.09;75.95;100264.75;116341;1303;22450;-71
2022/11/19 09:28:27;;;;;;;;;;;;;;;-0.86;75.74;100264.56;116334;1294;22597;-69
2022/11/19 09:31:15;;;;;;;;;;;;;;;-0.61;75.20;100256.84;116336;1288;24259;-70
2022/11/19 09:34:04;;;;;;;;;;;;;;;-0.21;74.29;100254.96;116370;1284;22449;-70
2022/11/19 09:36:58;;;;;;;;;;;;;;;0.11;73.58;100253.20;116355;1284;22564;-68
2022/11/19 09:39:45;;;;;;;;;;;;;;;0.55;73.86;100248.45;116412;1284;24277;-68
2022/11/19 09:42:39;;;;;;;;;;;;;;;1.13;72.61;100249.11;116357;1284;22452;-69
2022/11/19 09:45:44;;;;;;;;;;;;;;;1.43;71.13;100246.80;116295;1284;22467;-70
2022/11/19 09:48:38;;;;;;;;;;;;;;;2.02;70.82;100249.33;116328;1274;22448;-68
2022/11/19 09:51:28;;;;;;;;;;;;;;;2.37;69.64;100246.55;116357;1284;22441;-68
2022/11/19 09:54:18;;;;;;;;;;;;;;;2.50;68.14;100249.04;116350;1284;25370;-69
2022/11/19 09:57:05;;;;;;;;;;;;;;;2.60;67.78;100248.62;116320;1303;22635;-70
2022/11/19 09:59:53;;;;;;;;;;;;;;;2.94;66.81;100246.98;116323;1302;22446;-68
2022/11/19 10:02:43;;;;;;;;;;;;;;;3.18;66.13;100241.39;116307;1303;22506;-70
2022/11/19 10:05:36;;;;;;;;;;;;;;;3.60;65.20;100238.52;116344;1303;22545;-69
2022/11/19 10:08:31;;;;;;;;;;;;;;;3.85;65.79;100239.79;116349;1303;22452;-71
2022/11/19 10:11:28;;;;;;;;;;;;;;;3.99;65.40;100240.98;116332;1303;22438;-71
2022/11/19 10:14:25;;;;;;;;;;;;;;;3.78;63.86;100241.92;116400;1285;22432;-70
2022/11/19 10:17:19;;;;;;;;;;;;;;;3.45;64.02;100241.63;116371;1284;22438;-68
2022/11/19 10:20:19;;;;;;;;;;;;;;;3.22;63.47;100243.95;116361;1303;22445;-68
2022/11/19 10:23:12;;;;;;;;;;;;;;;2.96;62.45;100241.27;116377;1284;22434;-69
2022/11/19 10:26:04;;;;;;;;;;;;;;;2.68;62.51;100240.64;116367;1303;22443;-68
2022/11/19 10:28:55;;;;;;;;;;;;;;;2.42;63.05;100245.46;116372;1303;22441;-68
2022/11/19 10:31:47;;;;;;;;;;;;;;;2.15;63.02;100249.08;116360;1300;22479;-67
2022/11/19 10:34:36;;;;;;;;;;;;;;;1.87;62.93;100249.05;116388;1284;22452;-70
2022/11/19 10:37:24;;;;;;;;;;;;;;;1.51;63.07;100248.52;116338;1286;22777;-69
2022/11/19 10:40:14;;;;;;;;;;;;;;;1.18;63.67;100251.52;116330;1284;22501;-68
2022/11/19 10:43:05;;;;;;;;;;;;;;;0.93;64.13;100252.58;116323;1303;22447;-67
2022/11/19 10:45:53;;;;;;;;;;;;;;;0.70;64.62;100252.91;116342;1303;22439;-66
2022/11/19 10:48:47;;;;;;;;;;;;;;;0.52;65.39;100260.80;116317;1285;22464;-67
2022/11/19 10:51:44;;;;;;;;;;;;;;;0.37;65.27;100261.47;116369;1303;22448;-67
2022/11/19 10:54:34;;;;;;;;;;;;;;;0.18;65.74;100263.33;116321;1303;22453;-67
2022/11/19 10:57:25;;;;;;;;;;;;;;;0.05;66.34;100267.23;116340;1298;22440;-70
2022/11/19 11:00:19;;;;;;;;;;;;;;;-0.05;66.39;100270.64;116388;1298;22443;-70
2022/11/19 11:03:13;;;;;;;;;;;;;;;-0.19;66.52;100269.20;116365;1298;23365;-69
2022/11/19 11:06:11;;;;;;;;;;;;;;;-0.26;67.22;100272.27;116350;1293;22449;-69
2022/11/19 11:08:58;;;;;;;;;;;;;;;-0.32;67.30;100272.57;116352;1303;22434;-69
2022/11/19 11:14:53;;;;;;;;;;;;;;;-0.40;67.94;100277.16;116369;1284;24291;-67
2022/11/19 11:17:41;;;;;;;;;;;;;;;-0.46;67.68;100274.91;116364;1297;22455;-69
2022/11/19 11:20:30;;;;;;;;;;;;;;;-0.53;67.89;100279.50;116346;1303;22454;-70
2022/11/19 11:23:23;;;;;;;;;;;;;;;-0.55;68.27;100280.52;116301;1303;22767;-69
2022/11/19 11:26:20;;;;;;;;;;;;;;;-0.53;68.68;100281.05;116384;1303;22529;-68
2022/11/19 11:29:24;;;;;;;;;;;;;;;-0.56;67.90;100281.70;116328;1303;22455;-70
2022/11/19 11:32:30;;;;;;;;;;;;;;;-0.59;67.90;100283.58;116307;1301;22453;-68
2022/11/19 11:35:34;;;;;;;;;;;;;;;-0.57;67.68;100281.54;116378;1303;22448;-70
2022/11/19 11:38:25;;;;;;;;;;;;;;;-0.46;68.76;100283.30;116366;1303;25355;-69
2022/11/19 11:41:13;;;;;;;;;;;;;;;-0.29;68.74;100281.85;116409;1303;22446;-70
2022/11/19 11:44:07;;;;;;;;;;;;;;;-0.07;69.24;100279.20;116358;1276;25852;-65
2022/11/19 11:47:02;;;;;;;;;;;;;;;0.15;68.66;100281.66;116335;1303;24501;-70
2022/11/19 11:49:55;;;;;;;;;;;;;;;0.26;67.81;100278.77;116342;1285;22438;-67
2022/11/19 11:52:47;;;;;;;;;;;;;;;0.29;66.86;100278.95;116337;1303;22455;-68
2022/11/19 11:55:44;;;;;;;;;;;;;;;0.27;66.80;100279.30;116366;1303;25240;-68
2022/11/19 11:58:36;;;;;;;;;;;;;;;0.18;66.12;100278.27;116299;1298;24240;-70
2022/11/19 12:01:25;;;;;;;;;;;;;;;0.10;66.14;100277.71;116313;1294;22613;-69
2022/11/19 12:04:14;;;;;;;;;;;;;;;0.01;66.11;100283.86;116359;1294;22490;-69
2022/11/19 12:07:11;;;;;;;;;;;;;;;-0.10;65.87;100283.98;116317;1294;24264;-68
2022/11/19 12:10:21;;;;;;;;;;;;;;;-0.17;66.04;100282.92;116390;1286;22614;-70
2022/11/19 12:13:33;;;;;;;;;;;;;;;-0.24;65.16;100283.41;116351;1287;22502;-69
2022/11/19 12:16:36;;;;;;;;;;;;;;;-0.36;65.02;100279.75;116273;1303;25401;-68
2022/11/19 12:19:35;;;;;;;;;;;;;;;-0.40;65.44;100277.16;116387;1303;22449;-71
2022/11/19 12:22:31;;;;;;;;;;;;;;;-0.45;65.68;100280.05;116349;1303;25372;-70
2022/11/19 12:25:32;;;;;;;;;;;;;;;-0.48;65.06;100281.92;116361;1277;24305;-70
2022/11/19 12:28:37;;;;;;;;;;;;;;;-0.62;64.37;100284.07;116379;1303;22434;-71
2022/11/19 12:31:32;;;;;;;;;;;;;;;-0.65;65.03;100289.87;116342;1303;25201;-70
2022/11/19 12:34:39;;;;;;;;;;;;;;;-0.68;64.72;100295.00;116322;1303;22445;-68
2022/11/19 12:37:37;;;;;;;;;;;;;;;-0.75;64.74;100305.06;116334;1303;25218;-70
2022/11/19 12:40:34;;;;;;;;;;;;;;;-0.83;64.73;100307.74;116333;1283;22450;-69
2022/11/19 12:43:41;;;;;;;;;;;;;;;-0.92;64.99;100311.45;116358;1303;22624;-69
2022/11/19 12:46:42;;;;;;;;;;;;;;;-0.98;64.24;100312.60;116343;1302;22510;-69
2022/11/19 12:53:21;;;;;;;;;;;;;;;-1.17;64.80;100311.75;112601;1345;544116;-70
2022/11/19 12:56:13;;;;;;;;;;;;;;;-1.27;64.58;100313.05;115668;1298;25501;-70
2022/11/19 12:59:04;;;;;;;;;;;;;;;-1.37;64.46;100314.31;115710;1294;22496;-67
2022/11/19 13:01:55;;;;;;;;;;;;;;;-1.45;65.61;100318.35;115697;1294;22461;-67
2022/11/19 13:04:45;;;;;;;;;;;;;;;-1.49;65.99;100320.18;115870;1306;22452;-69
2022/11/19 13:07:36;;;;;;;;;;;;;;;-1.56;65.92;100314.29;115724;1281;409812;-70
2022/11/19 13:10:26;;;;;;;;;;;;;;;-1.65;65.48;100314.38;116089;1297;22582;-70
2022/11/19 13:13:17;;;;;;;;;;;;;;;-1.75;65.45;100314.44;116058;1298;22440;-70
2022/11/19 13:16:07;;;;;;;;;;;;;;;-1.85;65.87;100316.39;116346;1281;22435;-68
2022/11/19 13:19:05;;;;;;;;;;;;;;;-1.92;65.80;100311.52;116358;1303;22456;-69
2022/11/19 13:21:56;;;;;;;;;;;;;;;-2.01;65.75;100315.68;116376;1303;22447;-69
2022/11/19 13:24:45;;;;;;;;;;;;;;;-2.09;66.23;100321.73;116371;1278;22439;-69
2022/11/19 13:27:33;;;;;;;;;;;;;;;-2.17;66.07;100323.67;116376;1303;22429;-69
2022/11/19 13:30:25;;;;;;;;;;;;;;;-2.27;66.14;100328.52;116362;1303;25243;-68
2022/11/19 13:33:18;;;;;;;;;;;;;;;-2.36;66.23;100331.12;116326;1290;24275;-69
2022/11/19 13:36:10;;;;;;;;;;;;;;;-2.44;66.68;100333.91;116353;1296;22574;-71
2022/11/19 13:39:02;;;;;;;;;;;;;;;-2.52;66.71;100331.25;116325;1281;22445;-70
2022/11/19 13:44:57;;;;;;;;;;;;;;;-2.66;67.40;100341.64;116351;1287;25366;-71
2022/11/19 13:47:47;;;;;;;;;;;;;;;-2.73;67.28;100349.73;116360;1303;22443;-70
2022/11/19 13:50:37;;;;;;;;;;;;;;;-2.79;67.47;100353.37;116330;1284;24256;-70
2022/11/19 13:53:31;;;;;;;;;;;;;;;-2.87;67.49;100352.91;116691;1283;22432;-70
2022/11/19 13:56:24;;;;;;;;;;;;;;;-2.92;67.55;100352.66;116713;1300;25264;-70
2022/11/19 13:59:29;;;;;;;;;;;;;;;-2.99;67.54;100357.66;116674;1281;22460;-70
2022/11/19 14:02:43;;;;;;;;;;;;;;;-3.07;68.14;100365.38;116699;1300;22441;-69
2022/11/19 14:05:56;;;;;;;;;;;;;;;-3.15;68.47;100364.73;116689;1279;22434;-69
2022/11/19 14:09:09;;;;;;;;;;;;;;;-3.19;68.52;100371.14;116695;1285;22562;-69
2022/11/19 14:12:19;;;;;;;;;;;;;;;-3.27;68.73;100378.85;116656;1299;22475;-70
2022/11/19 14:28:35;;;;;;;;;;;;;;;-3.70;69.80;100379.59;116693;1299;22422;-70
2022/11/19 14:31:22;;;;;;;;;;;;;;;-3.75;70.20;100377.42;116672;1282;22446;-71
2022/11/19 14:34:26;;;;;;;;;;;;;;;-3.75;70.30;100374.02;116782;1281;22448;-70
2022/11/19 14:37:17;;;;;;;;;;;;;;;-3.71;70.54;100373.92;116728;1299;25325;-71
2022/11/19 14:40:08;;;;;;;;;;;;;;;-3.67;70.72;100365.66;116758;1300;22509;-70
2022/11/19 14:46:32;;;;;;;;;;;;;;;-3.68;71.14;100369.22;116752;1282;22438;-70
2022/11/19 14:49:30;;;;;;;;;;;;;;;-3.72;71.13;100371.02;116719;1300;26570;-69
2022/11/19 14:52:23;;;;;;;;;;;;;;;-3.79;71.04;100376.33;116704;1300;25203;-69
2022/11/19 14:55:22;;;;;;;;;;;;;;;-3.87;71.23;100372.77;116738;1277;24258;-70
2022/11/19 14:58:23;;;;;;;;;;;;;;;-3.95;71.46;100376.00;116699;1288;22527;-71
2022/11/19 15:01:15;;;;;;;;;;;;;;;-4.05;71.42;100373.73;116708;1300;24232;-70
2022/11/19 15:04:05;;;;;;;;;;;;;;;-4.17;71.50;100374.52;116716;1300;22460;-70
2022/11/19 15:06:58;;;;;;;;;;;;;;;-4.30;71.68;100372.87;116732;1300;22578;-69
2022/11/19 15:10:10;;;;;;;;;;;;;;;-4.40;71.97;100371.46;116708;1299;25232;-70
2022/11/19 15:13:27;;;;;;;;;;;;;;;-4.51;72.18;100367.63;116705;1288;22459;-70
2022/11/19 15:16:16;;;;;;;;;;;;;;;-4.63;72.44;100368.71;116609;1300;22450;-70